createdAt,value
2022-12-11T00:02:01.664Z,98128.63
2022-12-11T00:04:29.434Z,98130.71
2022-12-11T00:06:57.234Z,98128.98
2022-12-11T00:09:24.968Z,98128.29
2022-12-11T00:11:52.715Z,98126.85
2022-12-11T00:14:20.441Z,98126.59
2022-12-11T00:16:49.256Z,98121.39
2022-12-11T00:19:17.126Z,98122.79
2022-12-11T00:21:45.761Z,98122.11
2022-12-11T00:24:13.397Z,98117.85
2022-12-11T00:26:41.313Z,98115.33
2022-12-11T00:29:14.321Z,98113.49
2022-12-11T00:31:42.436Z,98114.52
2022-12-11T00:34:11.998Z,98116.99
2022-12-11T00:36:39.965Z,98113.16
2022-12-11T00:39:08.094Z,98121.08
2022-12-11T00:41:35.805Z,98121.38
2022-12-11T00:44:03.681Z,98127.48
2022-12-11T00:46:31.537Z,98129.16
2022-12-11T00:48:59.177Z,98125.73
2022-12-11T00:51:26.933Z,98123.39
2022-12-11T00:53:54.648Z,98124.64
2022-12-11T00:56:23.561Z,98123.46
2022-12-11T00:58:51.907Z,98124.99
2022-12-11T01:01:22.322Z,98128.98
2022-12-11T01:03:50.396Z,98121.34
2022-12-11T01:06:20.847Z,98123.49
2022-12-11T01:08:48.626Z,98121.45
2022-12-11T01:11:17.220Z,98118.52
2022-12-11T01:13:44.963Z,98111.90
2022-12-11T01:16:14.702Z,98106.34
2022-12-11T01:18:42.561Z,98106.18
2022-12-11T01:21:12.582Z,98108.17
2022-12-11T01:23:40.334Z,98109.31
2022-12-11T01:26:10.080Z,98099.50
2022-12-11T01:28:38.021Z,98097.39
2022-12-11T01:31:13.973Z,98093.70
2022-12-11T01:33:41.800Z,98096.08
2022-12-11T01:36:15.919Z,98095.13
2022-12-11T01:38:45.077Z,98096.52
2022-12-11T01:41:13.022Z,98089.95
2022-12-11T01:44:05.460Z,98085.27
2022-12-11T01:46:36.751Z,98083.70
2022-12-11T01:49:07.747Z,98083.70
2022-12-11T01:52:01.288Z,98083.06
2022-12-11T01:54:29.781Z,98075.89
2022-12-11T01:57:00.559Z,98071.48
2022-12-11T01:59:29.808Z,98070.14
2022-12-11T02:02:07.451Z,98073.14
2022-12-11T02:04:36.711Z,98074.01
2022-12-11T02:07:04.429Z,98075.77
2022-12-11T02:09:36.345Z,98069.41
2022-12-11T02:12:19.873Z,98064.00
2022-12-11T02:14:51.444Z,98058.56
2022-12-11T02:17:36.194Z,98051.47
2022-12-11T02:20:20.432Z,98043.63
2022-12-11T02:23:24.432Z,98041.70
2022-12-11T02:26:14.464Z,98037.19
2022-12-11T02:28:47.294Z,98034.09
2022-12-11T02:31:26.504Z,98031.04
2022-12-11T02:34:05.132Z,98028.70
2022-12-11T02:36:36.185Z,98026.81
2022-12-11T02:39:05.790Z,98029.07
2022-12-11T02:41:34.206Z,98025.66
2022-12-11T02:44:03.295Z,98025.59
2022-12-11T02:46:32.629Z,98025.56
2022-12-11T02:49:00.916Z,98025.23
2022-12-11T02:51:32.306Z,98021.22
2022-12-11T02:54:00.738Z,98017.61
2022-12-11T02:57:01.920Z,98018.88
2022-12-11T02:59:34.994Z,98022.79
2022-12-11T03:02:03.743Z,98026.06
2022-12-11T03:04:32.063Z,98031.47
2022-12-11T03:07:12.008Z,98036.30
2022-12-11T03:09:44.122Z,98034.31
2022-12-11T03:12:15.507Z,98034.06
2022-12-11T03:14:43.812Z,98037.00
2022-12-11T03:17:18.331Z,98039.75
2022-12-11T03:20:07.840Z,98034.98
2022-12-11T03:22:47.607Z,98034.71
2022-12-11T03:25:34.894Z,98036.48
2022-12-11T03:28:07.878Z,98038.58
2022-12-11T03:30:36.446Z,98035.96
2022-12-11T03:33:07.532Z,98036.88
2022-12-11T03:35:45.134Z,98034.44
2022-12-11T03:38:16.552Z,98035.23
2022-12-11T03:40:46.758Z,98036.13
2022-12-11T03:43:15.300Z,98038.90
2022-12-11T03:45:43.572Z,98029.19
2022-12-11T03:48:12.006Z,98025.69
2022-12-11T03:50:40.492Z,98024.27
2022-12-11T03:53:08.512Z,98023.69
2022-12-11T03:55:37.547Z,98023.77
2022-12-11T03:58:05.187Z,98027.41
2022-12-11T04:00:33.039Z,98028.66
2022-12-11T04:03:13.955Z,98031.86
2022-12-11T04:05:47.504Z,98032.68
2022-12-11T04:08:16.151Z,98027.29
2022-12-11T04:10:44.234Z,98018.59
2022-12-11T04:13:12.196Z,98023.86
2022-12-11T04:15:41.066Z,98023.42
2022-12-11T04:18:28.624Z,98022.00
2022-12-11T04:21:15.085Z,98027.55
2022-12-11T04:24:06.010Z,98031.06
2022-12-11T04:26:33.707Z,98030.55
2022-12-11T04:29:01.388Z,98026.75
2022-12-11T04:31:30.091Z,98026.84
2022-12-11T04:33:58.149Z,98025.84
2022-12-11T04:36:25.962Z,98021.38
2022-12-11T04:38:53.685Z,98019.65
2022-12-11T04:41:21.355Z,98023.80
2022-12-11T04:43:49.067Z,98023.74
2022-12-11T04:46:20.134Z,98020.27
2022-12-11T04:48:53.870Z,98015.23
2022-12-11T04:51:24.964Z,98008.90
2022-12-11T04:53:52.942Z,98010.73
2022-12-11T04:56:21.441Z,98008.75
2022-12-11T04:58:49.377Z,98008.13
2022-12-11T05:01:20.193Z,98006.54
2022-12-11T05:03:48.231Z,98000.59
2022-12-11T05:06:16.198Z,97997.15
2022-12-11T05:08:45.243Z,97988.65
2022-12-11T05:11:14.990Z,97989.44
2022-12-11T05:13:43.749Z,97985.98
2022-12-11T05:16:14.748Z,97983.72
2022-12-11T05:18:42.936Z,97978.08
2022-12-11T05:21:12.627Z,97973.63
2022-12-11T05:23:40.892Z,97976.41
2022-12-11T05:26:12.583Z,97975.91
2022-12-11T05:28:41.040Z,97974.71
2022-12-11T05:31:13.378Z,97975.49
2022-12-11T05:33:41.753Z,97972.35
2022-12-11T05:36:10.731Z,97969.96
2022-12-11T05:38:38.439Z,97969.52
2022-12-11T05:41:06.825Z,97970.46
2022-12-11T05:43:36.401Z,97968.99
2022-12-11T05:46:08.955Z,97961.02
2022-12-11T05:48:37.125Z,97956.80
2022-12-11T05:51:06.131Z,97958.37
2022-12-11T05:53:35.181Z,97957.91
2022-12-11T05:56:24.883Z,97955.01
2022-12-11T05:58:53.513Z,97958.50
2022-12-11T06:01:25.023Z,97951.13
2022-12-11T06:03:53.799Z,97954.51
2022-12-11T06:06:24.946Z,97955.61
2022-12-11T06:08:54.045Z,97956.02
2022-12-11T06:11:24.305Z,97954.83
2022-12-11T06:13:53.023Z,97960.45
2022-12-11T06:16:21.802Z,97958.98
2022-12-11T06:18:49.525Z,97959.11
2022-12-11T06:21:23.271Z,97961.80
2022-12-11T06:23:52.637Z,97964.20
2022-12-11T06:26:21.275Z,97961.01
2022-12-11T06:28:49.881Z,97957.58
2022-12-11T06:31:18.252Z,97957.15
2022-12-11T06:33:46.443Z,97959.73
2022-12-11T06:36:20.472Z,97956.46
2022-12-11T06:38:48.561Z,97955.63
2022-12-11T06:41:16.718Z,97956.04
2022-12-11T06:43:44.398Z,97955.98
2022-12-11T06:46:14.872Z,97955.13
2022-12-11T06:48:43.309Z,97961.14
2022-12-11T06:51:17.358Z,97965.55
2022-12-11T06:53:45.509Z,97967.63
2022-12-11T06:56:15.397Z,97971.28
2022-12-11T06:58:44.076Z,97969.45
2022-12-11T07:01:26.232Z,97972.69
2022-12-11T07:03:55.332Z,97973.23
2022-12-11T07:06:23.928Z,97976.34
2022-12-11T07:08:51.678Z,97977.27
2022-12-11T07:11:20.330Z,97975.33
2022-12-11T07:13:48.648Z,97976.57
2022-12-11T07:16:17.580Z,97977.39
2022-12-11T07:18:50.239Z,97973.40
2022-12-11T07:21:18.792Z,97974.88
2022-12-11T07:23:47.903Z,97971.29
2022-12-11T07:26:17.884Z,97970.04
2022-12-11T07:28:45.542Z,97971.63
2022-12-11T07:31:15.653Z,97965.98
2022-12-11T07:33:43.822Z,97965.36
2022-12-11T07:36:12.900Z,97963.11
2022-12-11T07:38:41.035Z,97960.33
2022-12-11T07:41:11.664Z,97952.89
2022-12-11T07:43:39.526Z,97947.63
2022-12-11T07:46:10.819Z,97945.94
2022-12-11T07:48:40.171Z,97937.55
2022-12-11T07:51:14.924Z,97945.10
2022-12-11T07:53:46.158Z,97944.21
2022-12-11T07:56:15.642Z,97938.52
2022-12-11T07:58:44.087Z,97938.33
2022-12-11T08:01:21.484Z,97937.48
2022-12-11T08:03:50.665Z,97936.40
2022-12-11T08:06:19.015Z,97939.53
2022-12-11T08:08:47.557Z,97940.02
2022-12-11T08:11:15.447Z,97939.08
2022-12-11T08:13:43.695Z,97937.41
2022-12-11T08:16:13.401Z,97942.41
2022-12-11T08:18:42.513Z,97933.49
2022-12-11T08:21:29.299Z,97930.14
2022-12-11T08:23:57.040Z,97929.51
2022-12-11T08:26:29.983Z,97931.13
2022-12-11T08:28:58.587Z,97935.05
2022-12-11T08:31:26.670Z,97938.98
2022-12-11T08:33:55.800Z,97935.31
2022-12-11T08:36:23.695Z,97928.92
2022-12-11T08:38:51.805Z,97929.83
2022-12-11T08:41:22.362Z,97927.22
2022-12-11T08:43:54.788Z,97938.36
2022-12-11T08:46:24.846Z,97944.96
2022-12-11T08:48:53.245Z,97944.57
2022-12-11T08:51:23.570Z,97944.50
2022-12-11T08:53:51.950Z,97937.06
2022-12-11T08:56:21.497Z,97935.27
2022-12-11T08:58:49.323Z,97935.95
2022-12-11T09:01:21.465Z,97931.45
2022-12-11T09:03:50.689Z,97931.41
2022-12-11T09:06:21.087Z,97925.46
2022-12-11T09:08:52.957Z,97929.45
2022-12-11T09:11:27.359Z,97925.37
2022-12-11T09:13:55.708Z,97920.81
2022-12-11T09:16:25.300Z,97918.92
2022-12-11T09:18:55.508Z,97920.44
2022-12-11T09:21:26.203Z,97918.11
2022-12-11T09:23:56.357Z,97913.70
2022-12-11T09:26:24.608Z,97910.52
2022-12-11T09:28:53.475Z,97906.77
2022-12-11T09:31:24.804Z,97906.78
2022-12-11T09:33:56.458Z,97915.01
2022-12-11T09:36:24.991Z,97912.33
2022-12-11T09:38:53.752Z,97907.46
2022-12-11T09:41:21.719Z,97903.35
2022-12-11T09:44:03.014Z,97902.69
2022-12-11T09:46:34.174Z,97899.89
2022-12-11T09:49:04.149Z,97899.50
2022-12-11T09:52:00.261Z,97892.28
2022-12-11T09:54:28.206Z,97889.02
2022-12-11T09:57:10.229Z,97884.48
2022-12-11T09:59:53.345Z,97875.42
2022-12-11T10:02:23.432Z,97874.54
2022-12-11T10:05:13.917Z,97868.66
2022-12-11T10:07:53.010Z,97866.23
2022-12-11T10:10:39.295Z,97862.49
2022-12-11T10:13:46.178Z,97854.84
2022-12-11T10:16:24.290Z,97850.38
2022-12-11T10:18:52.316Z,97848.27
2022-12-11T10:21:20.378Z,97846.48
2022-12-11T10:23:55.011Z,97843.54
2022-12-11T10:26:23.847Z,97845.20
2022-12-11T10:28:52.154Z,97843.17
2022-12-11T10:31:27.728Z,97847.27
2022-12-11T10:34:02.033Z,97846.11
2022-12-11T10:36:32.397Z,97845.89
2022-12-11T10:39:00.443Z,97839.45
2022-12-11T10:41:39.690Z,97838.24
2022-12-11T10:44:31.294Z,97831.96
2022-12-11T10:47:10.856Z,97829.30
2022-12-11T10:49:44.066Z,97826.94
2022-12-11T10:52:22.379Z,97824.55
2022-12-11T10:55:10.385Z,97820.14
2022-12-11T10:57:39.290Z,97815.34
2022-12-11T11:00:09.715Z,97811.81
2022-12-11T11:02:40.266Z,97808.02
2022-12-11T11:05:25.809Z,97800.66
2022-12-11T11:08:14.874Z,97795.92
2022-12-11T11:11:00.762Z,97793.62
2022-12-11T11:13:30.648Z,97788.84
2022-12-11T11:16:06.984Z,97786.90
2022-12-11T11:18:36.969Z,97781.70
2022-12-11T11:21:05.586Z,97775.81
2022-12-11T11:23:34.344Z,97775.33
2022-12-11T11:26:07.403Z,97777.70
2022-12-11T11:28:37.989Z,97777.64
2022-12-11T11:31:09.090Z,97771.55
2022-12-11T11:33:38.271Z,97769.35
2022-12-11T11:36:07.962Z,97766.47
2022-12-11T11:38:43.652Z,97764.38
2022-12-11T11:41:25.868Z,97765.05
2022-12-11T11:43:58.409Z,97762.62
2022-12-11T11:46:28.151Z,97757.73
2022-12-11T11:49:03.946Z,97760.21
2022-12-11T11:51:39.106Z,97761.88
2022-12-11T11:54:31.128Z,97757.20
2022-12-11T11:57:00.587Z,97756.63
2022-12-11T11:59:35.036Z,97757.02
2022-12-11T12:02:02.956Z,97752.31
2022-12-11T12:04:35.098Z,97746.91
2022-12-11T12:07:24.882Z,97752.47
2022-12-11T12:10:03.867Z,97746.04
2022-12-11T12:13:10.858Z,97748.41
2022-12-11T12:15:56.938Z,97747.10
2022-12-11T12:18:35.105Z,97746.16
2022-12-11T12:21:14.793Z,97744.89
2022-12-11T12:24:06.747Z,97742.61
2022-12-11T12:26:41.407Z,97740.63
2022-12-11T12:29:22.640Z,97738.34
2022-12-11T12:32:09.581Z,97737.02
2022-12-11T12:35:02.237Z,97733.79
2022-12-11T12:37:30.443Z,97731.70
2022-12-11T12:40:23.621Z,97733.83
2022-12-11T12:42:57.451Z,97728.99
2022-12-11T12:45:40.389Z,97727.98
2022-12-11T12:48:09.351Z,97726.59
2022-12-11T12:50:48.689Z,97723.91
2022-12-11T12:53:19.885Z,97723.70
2022-12-11T12:55:48.841Z,97722.73
2022-12-11T12:58:35.525Z,97722.72
2022-12-11T13:01:12.571Z,97717.98
2022-12-11T13:04:04.199Z,97718.79
2022-12-11T13:06:43.383Z,97721.67
2022-12-11T13:09:18.622Z,97721.27
2022-12-11T13:11:50.130Z,97717.08
2022-12-11T13:14:17.828Z,97723.17
2022-12-11T13:16:50.509Z,97719.27
2022-12-11T13:19:27.096Z,97725.89
2022-12-11T13:22:14.930Z,97731.74
2022-12-11T13:24:52.833Z,97731.55
2022-12-11T13:27:27.448Z,97727.77
2022-12-11T13:30:20.108Z,97726.50
2022-12-11T13:33:03.476Z,97731.20
2022-12-11T13:35:32.501Z,97734.61
2022-12-11T13:38:07.137Z,97732.84
2022-12-11T13:40:43.178Z,97729.59
2022-12-11T13:43:21.034Z,97730.05
2022-12-11T13:45:50.949Z,97731.73
2022-12-11T13:48:38.499Z,97733.20
2022-12-11T13:51:06.913Z,97734.68
2022-12-11T13:53:34.775Z,97729.75
2022-12-11T13:56:06.180Z,97736.11
2022-12-11T13:58:35.636Z,97737.75
2022-12-11T14:01:13.362Z,97739.19
2022-12-11T14:03:57.397Z,97740.70
2022-12-11T14:06:26.309Z,97742.32
2022-12-11T14:08:57.171Z,97737.30
2022-12-11T14:11:36.271Z,97739.39
2022-12-11T14:14:06.962Z,97738.89
2022-12-11T14:16:35.029Z,97739.02
2022-12-11T14:19:05.731Z,97733.45
2022-12-11T14:21:33.675Z,97733.88
2022-12-11T14:24:03.770Z,97735.84
2022-12-11T14:26:34.317Z,97736.30
2022-12-11T14:29:03.093Z,97732.54
2022-12-11T14:31:40.498Z,97728.20
2022-12-11T14:34:40.204Z,97735.55
2022-12-11T14:37:08.263Z,97734.65
2022-12-11T14:40:10.006Z,97729.20
2022-12-11T14:42:45.983Z,97723.04
2022-12-11T14:45:21.106Z,97717.95
2022-12-11T14:47:49.373Z,97718.93
2022-12-11T14:50:44.352Z,97721.43
2022-12-11T14:53:18.883Z,97720.88
2022-12-11T14:55:48.337Z,97723.00
2022-12-11T14:58:20.484Z,97717.48
2022-12-11T15:01:03.629Z,97714.55
2022-12-11T15:03:37.039Z,97715.98
2022-12-11T15:06:33.794Z,97712.57
2022-12-11T15:09:20.676Z,97720.21
2022-12-11T15:11:50.211Z,97717.48
2022-12-11T15:14:22.535Z,97718.83
2022-12-11T15:16:52.046Z,97721.02
2022-12-11T15:19:23.429Z,97720.59
2022-12-11T15:21:51.523Z,97717.48
2022-12-11T15:24:44.275Z,97716.66
2022-12-11T15:27:24.410Z,97721.47
2022-12-11T15:29:52.278Z,97720.33
2022-12-11T15:32:21.879Z,97721.27
2022-12-11T15:35:00.234Z,97719.96
2022-12-11T15:37:31.653Z,97727.11
2022-12-11T15:40:01.377Z,97724.02
2022-12-11T15:42:32.767Z,97722.48
2022-12-11T15:45:01.018Z,97721.84
2022-12-11T15:47:31.101Z,97717.98
2022-12-11T15:50:01.939Z,97716.84
2022-12-11T15:52:30.036Z,97714.46
2022-12-11T15:54:57.746Z,97711.70
2022-12-11T15:57:25.737Z,97709.46
2022-12-11T15:59:54.993Z,97709.28
2022-12-11T16:02:24.430Z,97710.77
2022-12-11T16:04:52.447Z,97704.87
2022-12-11T16:07:23.160Z,97706.08
2022-12-11T16:09:51.781Z,97701.86
2022-12-11T16:12:20.447Z,97705.63
2022-12-11T16:14:48.287Z,97703.67
2022-12-11T16:17:16.041Z,97706.86
2022-12-11T16:19:44.702Z,97708.66
2022-12-11T16:22:13.838Z,97707.58
2022-12-11T16:24:41.984Z,97708.42
2022-12-11T16:27:10.003Z,97706.23
2022-12-11T16:29:40.121Z,97702.36
2022-12-11T16:32:08.746Z,97702.26
2022-12-11T16:34:37.678Z,97696.52
2022-12-11T16:37:07.441Z,97694.85
2022-12-11T16:39:37.297Z,97692.56
2022-12-11T16:42:06.357Z,97694.08
2022-12-11T16:44:35.717Z,97690.86
2022-12-11T16:47:05.190Z,97688.88
2022-12-11T16:49:33.209Z,97694.45
2022-12-11T16:52:01.446Z,97697.39
2022-12-11T16:54:29.371Z,97700.73
2022-12-11T16:56:57.197Z,97696.35
2022-12-11T16:59:25.124Z,97696.45
2022-12-11T17:01:52.968Z,97697.20
2022-12-11T17:04:20.900Z,97699.84
2022-12-11T17:06:48.770Z,97697.45
2022-12-11T17:09:16.737Z,97699.95
2022-12-11T17:11:44.707Z,97695.59
2022-12-11T17:14:12.649Z,97690.23
2022-12-11T17:16:40.458Z,97692.57
2022-12-11T17:19:09.488Z,97694.67
2022-12-11T17:21:37.434Z,97696.28
2022-12-11T17:24:06.714Z,97690.67
2022-12-11T17:26:34.888Z,97686.10
2022-12-11T17:29:03.408Z,97685.89
2022-12-11T17:31:31.290Z,97686.30
2022-12-11T17:34:00.823Z,97688.91
2022-12-11T17:36:28.948Z,97694.02
2022-12-11T17:38:57.134Z,97695.41
2022-12-11T17:41:25.218Z,97695.30
2022-12-11T17:43:53.938Z,97698.21
2022-12-11T17:46:23.060Z,97699.45
2022-12-11T17:48:51.064Z,97699.13
2022-12-11T17:51:24.535Z,97698.77
2022-12-11T17:53:55.675Z,97701.55
2022-12-11T17:56:24.648Z,97701.69
2022-12-11T17:58:52.793Z,97703.17
2022-12-11T18:01:20.746Z,97707.29
2022-12-11T18:03:48.764Z,97707.52
2022-12-11T18:06:17.633Z,97708.92
2022-12-11T18:08:46.214Z,97705.79
2022-12-11T18:11:19.206Z,97705.42
2022-12-11T18:13:48.691Z,97700.63
2022-12-11T18:16:24.541Z,97707.19
2022-12-11T18:18:52.545Z,97705.45
2022-12-11T18:21:25.433Z,97707.61
2022-12-11T18:23:53.689Z,97706.14
2022-12-11T18:26:22.048Z,97707.19
2022-12-11T18:28:50.612Z,97707.13
2022-12-11T18:31:19.581Z,97714.52
2022-12-11T18:33:47.399Z,97713.73
2022-12-11T18:36:18.303Z,97710.70
2022-12-11T18:38:47.967Z,97709.09
2022-12-11T18:41:17.119Z,97714.00
2022-12-11T18:43:45.566Z,97710.80
2022-12-11T18:46:19.166Z,97707.99
2022-12-11T18:48:47.555Z,97697.14
2022-12-11T18:51:19.218Z,97700.17
2022-12-11T18:53:46.985Z,97695.25
2022-12-11T18:56:16.975Z,97693.94
2022-12-11T18:58:45.496Z,97690.98
2022-12-11T19:01:20.045Z,97692.47
2022-12-11T19:03:48.477Z,97697.84
2022-12-11T19:06:18.813Z,97696.00
2022-12-11T19:08:46.965Z,97697.04
2022-12-11T19:11:20.042Z,97694.52
2022-12-11T19:13:52.239Z,97692.77
2022-12-11T19:16:23.550Z,97693.02
2022-12-11T19:18:51.477Z,97691.98
2022-12-11T19:21:19.501Z,97692.95
2022-12-11T19:23:47.562Z,97686.52
2022-12-11T19:26:22.665Z,97682.20
2022-12-11T19:28:51.558Z,97679.96
2022-12-11T19:31:21.804Z,97676.17
2022-12-11T19:33:49.681Z,97678.67
2022-12-11T19:36:20.858Z,97679.33
2022-12-11T19:38:48.984Z,97681.58
2022-12-11T19:41:22.302Z,97683.67
2022-12-11T19:43:51.161Z,97684.13
2022-12-11T19:46:19.218Z,97679.35
2022-12-11T19:48:53.824Z,97672.61
2022-12-11T19:51:24.883Z,97674.54
2022-12-11T19:53:52.882Z,97674.96
2022-12-11T19:56:20.848Z,97670.95
2022-12-11T19:58:49.868Z,97670.61
2022-12-11T20:01:30.993Z,97669.73
2022-12-11T20:04:01.467Z,97665.31
2022-12-11T20:06:31.331Z,97668.14
2022-12-11T20:09:01.249Z,97663.09
2022-12-11T20:11:29.099Z,97660.72
2022-12-11T20:13:56.978Z,97664.04
2022-12-11T20:16:46.268Z,97660.64
2022-12-11T20:19:13.030Z,97655.67
2022-12-11T20:21:41.070Z,97652.38
2022-12-11T20:24:09.976Z,97655.42
2022-12-11T20:26:40.070Z,97653.91
2022-12-11T20:29:08.430Z,97655.31
2022-12-11T20:31:36.890Z,97655.20
2022-12-11T20:34:05.545Z,97652.95
2022-12-11T20:36:34.046Z,97649.86
2022-12-11T20:39:02.138Z,97653.65
2022-12-11T20:41:29.876Z,97646.54
2022-12-11T20:43:57.673Z,97644.31
2022-12-11T20:46:27.296Z,97644.11
2022-12-11T20:48:58.490Z,97647.15
2022-12-11T20:51:28.010Z,97648.59
2022-12-11T20:53:58.215Z,97646.17
2022-12-11T20:56:28.528Z,97646.07
2022-12-11T20:58:56.706Z,97645.84
2022-12-11T21:01:26.269Z,97643.11
2022-12-11T21:03:54.547Z,97646.69
2022-12-11T21:06:25.347Z,97648.71
2022-12-11T21:08:53.765Z,97650.48
2022-12-11T21:11:21.849Z,97645.23
2022-12-11T21:13:52.179Z,97645.16
2022-12-11T21:16:21.307Z,97639.55
2022-12-11T21:18:49.253Z,97635.23
2022-12-11T21:21:17.872Z,97637.71
2022-12-11T21:23:45.839Z,97633.89
2022-12-11T21:26:13.777Z,97633.00
2022-12-11T21:28:41.614Z,97631.97
2022-12-11T21:31:12.552Z,97635.77
2022-12-11T21:33:43.683Z,97634.74
2022-12-11T21:36:13.092Z,97631.86
2022-12-11T21:38:43.306Z,97627.46
2022-12-11T21:41:14.178Z,97623.64
2022-12-11T21:44:19.262Z,97624.82
2022-12-11T21:46:31.373Z,97628.34
2022-12-11T21:49:00.497Z,97629.33
2022-12-11T21:51:35.946Z,97635.48
2022-12-11T21:54:09.258Z,97642.87
2022-12-11T21:56:38.013Z,97644.57
2022-12-11T21:59:06.204Z,97648.05
2022-12-11T22:01:40.992Z,97648.29
2022-12-11T22:04:10.417Z,97648.88
2022-12-11T22:06:42.023Z,97644.94
2022-12-11T22:09:12.552Z,97638.67
2022-12-11T22:11:42.095Z,97641.07
2022-12-11T22:14:15.495Z,97642.17
2022-12-11T22:16:44.060Z,97639.75
2022-12-11T22:19:12.172Z,97640.70
2022-12-11T22:21:39.984Z,97641.13
2022-12-11T22:24:08.087Z,97642.30
2022-12-11T22:26:35.865Z,97641.29
2022-12-11T22:29:03.619Z,97639.08
2022-12-11T22:31:31.419Z,97636.96
2022-12-11T22:33:59.458Z,97631.60
2022-12-11T22:36:28.506Z,97634.83
2022-12-11T22:38:56.196Z,97634.27
2022-12-11T22:41:27.012Z,97635.09
2022-12-11T22:43:55.462Z,97635.39
2022-12-11T22:46:26.353Z,97635.13
2022-12-11T22:48:54.567Z,97637.20
2022-12-11T22:51:22.922Z,97636.46
2022-12-11T22:53:51.030Z,97639.61
2022-12-11T22:56:18.811Z,97640.66
2022-12-11T22:58:47.339Z,97644.58
2022-12-11T23:01:17.947Z,97644.70
2022-12-11T23:03:45.888Z,97643.14
2022-12-11T23:06:16.081Z,97645.02
2022-12-11T23:08:44.054Z,97647.50
2022-12-11T23:11:17.603Z,97649.66
2022-12-11T23:13:45.360Z,97651.15
2022-12-11T23:16:13.629Z,97650.17
2022-12-11T23:18:41.610Z,97650.50
2022-12-11T23:21:11.008Z,97647.77
2022-12-11T23:23:39.314Z,97645.54
2022-12-11T23:26:09.754Z,97642.98
2022-12-11T23:28:37.888Z,97639.51
2022-12-11T23:31:05.958Z,97637.98
2022-12-11T23:33:33.801Z,97634.42
2022-12-11T23:36:01.829Z,97641.17
2022-12-11T23:38:29.684Z,97641.27
2022-12-11T23:41:00.214Z,97638.11
2022-12-11T23:43:27.984Z,97638.20
2022-12-11T23:45:55.781Z,97636.45
2022-12-11T23:48:23.831Z,97642.46
2022-12-11T23:50:52.010Z,97641.02
2022-12-11T23:53:19.883Z,97640.34
2022-12-11T23:55:47.746Z,97640.04
2022-12-11T23:58:15.612Z,97644.73
